Nearby METAR Reports

 

KMFD - Mansfield, Ohio, USA
Distance from station: E 12mi, 20km
Updated: 05/18/2022 10:52am
Light rain, Overcast
Light rain, Overcast
 Wind from SE
Wind: SE 10 mph , 17 km/h
Temperature: 55°F , 13°C
Dew Point: 46°F , 8°C
Humidity: 72%
Barometer: 30.00 inHg , 1015.9 hPa
Summary: Light rain
Clouds: Overcast
Visibility: 10 miles , 16 km
Cloud details: Overcast 10000 ft
2022/05/18 14:52 KMFD 181452Z 13009KT 10SM -RA OVC100 13/08 A3000 RMK AO2 RAB19 SLP160 P0000 60000 T01330083 58010
KMNN - Marion, Ohio, USA
Distance from station: SW 20mi, 33km
Updated: 05/18/2022 8:53am
NOT Current
Light rain, Overcast
Light rain, Overcast
 Wind from SSE
Wind: SSE 6 mph , 9 km/h
Temperature: 57°F , 14°C
Dew Point: 46°F , 8°C
Humidity: 67%
Barometer: 30.04 inHg , 1017.3 hPa
Summary: Light rain
Clouds: Overcast
Visibility: 9 miles , 14 km
Cloud details: Overcast 6500 ft
2022/05/18 12:53 KMNN 181253Z AUTO 16005KT 9SM -RA OVC065 14/08 A3004 RMK AO2 RAB44 SLP171 P0000 T01390078
 
K4I3 - Mt Vernon/Knox, Ohio, USA
Distance from station: SSE 33mi, 54km
Updated: 05/18/2022 11:35am
Clear
Clear
 Wind from ESE
Wind: ESE 6 mph , 9 km/h
Temperature: 59°F , 15°C
Dew Point: 48°F , 9°C
Humidity: 68%
Barometer: 30.01 inHg , 1016.3 hPa
Clouds: Clear
Visibility: 10 miles , 16 km
2022/05/18 15:35 K4I3 181535Z AUTO 12005KT 10SM CLR 15/09 A3001 RMK AO2
KDLZ - Delaware, Ohio, USA
Distance from station: SSW 40mi, 64km
Updated: 05/18/2022 11:35am
Overcast
Overcast
 Wind from ESE
Wind: ESE 7 mph , 11 km/h
Temperature: 57°F , 14°C
Dew Point: 48°F , 9°C
Humidity: 72%
Barometer: 29.98 inHg , 1015.2 hPa
Clouds: Overcast
Visibility: 10 miles , 16 km
Cloud details: Overcast 8000 ft
2022/05/18 15:35 KDLZ 181535Z AUTO 11006KT 10SM OVC080 14/09 A2998 RMK AO2
 
KBJJ - Wooster, Ohio, USA
Distance from station: E 46mi, 73km
Updated: 05/18/2022 10:56am
Overcast
Overcast
 Wind from S
Wind: S 6 mph , 9 km/h
Temperature: 55°F , 13°C
Dew Point: 45°F , 7°C
Humidity: 67%
Barometer: 30.03 inHg , 1016.9 hPa
Clouds: Overcast
Visibility: 10 miles , 16 km
Cloud details: Overcast 6500 ft
2022/05/18 14:56 KBJJ 181456Z AUTO 17005KT 10SM OVC065 13/07 A3003 RMK AO2 RAB11E20 SLP171 P0000 60000 T01330072 58006
KLPR - Lorain/Elyria, Ohio, USA
Distance from station: NE 49mi, 79km
Updated: 05/18/2022 10:53am
Light rain, Overcast
Light rain, Overcast
 Wind from ESE
Wind: ESE 7 mph , 11 km/h
Temperature: 57°F , 14°C
Dew Point: 46°F , 8°C
Humidity: 67%
Barometer: 30.02 inHg , 1016.6 hPa
Summary: Light rain
Clouds: Overcast
Visibility: 10 miles , 16 km
Cloud details: Overcast 7000 ft
2022/05/18 14:53 KLPR 181453Z AUTO 12006KT 10SM -RA OVC070 14/08 A3002 RMK AO2 RAB27 SLP166 P0000 60000 T01390083 58007